sensor_id;sensor_type;location;lat;lon;timestamp;temperature;humidity
7399;DHT22;3740;50.700;7.184;2023-06-14T00:00:00;19.50;99.70
7399;DHT22;3740;50.700;7.184;2023-06-14T00:02:25;19.50;99.60
7399;DHT22;3740;50.700;7.184;2023-06-14T00:04:51;19.50;99.30
7399;DHT22;3740;50.700;7.184;2023-06-14T00:07:17;19.50;99.00
7399;DHT22;3740;50.700;7.184;2023-06-14T00:09:43;19.50;98.90
7399;DHT22;3740;50.700;7.184;2023-06-14T00:12:09;19.50;98.20
7399;DHT22;3740;50.700;7.184;2023-06-14T00:14:35;19.50;98.10
7399;DHT22;3740;50.700;7.184;2023-06-14T00:17:00;19.60;98.00
7399;DHT22;3740;50.700;7.184;2023-06-14T00:19:26;19.60;97.80
7399;DHT22;3740;50.700;7.184;2023-06-14T00:21:52;19.50;98.30
7399;DHT22;3740;50.700;7.184;2023-06-14T00:24:18;19.50;98.30
7399;DHT22;3740;50.700;7.184;2023-06-14T00:26:43;19.50;97.80
7399;DHT22;3740;50.700;7.184;2023-06-14T00:29:09;19.50;98.00
7399;DHT22;3740;50.700;7.184;2023-06-14T00:31:35;19.50;98.20
7399;DHT22;3740;50.700;7.184;2023-06-14T00:34:00;19.50;97.20
7399;DHT22;3740;50.700;7.184;2023-06-14T00:36:26;19.50;97.10
7399;DHT22;3740;50.700;7.184;2023-06-14T00:38:51;19.60;96.50
7399;DHT22;3740;50.700;7.184;2023-06-14T00:41:17;19.60;96.30
7399;DHT22;3740;50.700;7.184;2023-06-14T00:43:42;19.60;94.50
7399;DHT22;3740;50.700;7.184;2023-06-14T00:46:08;19.70;95.70
7399;DHT22;3740;50.700;7.184;2023-06-14T00:48:34;19.70;95.40
7399;DHT22;3740;50.700;7.184;2023-06-14T00:51:01;19.70;95.30
7399;DHT22;3740;50.700;7.184;2023-06-14T00:53:30;19.70;94.60
7399;DHT22;3740;50.700;7.184;2023-06-14T00:55:58;19.80;93.70
7399;DHT22;3740;50.700;7.184;2023-06-14T00:58:23;19.80;94.60
7399;DHT22;3740;50.700;7.184;2023-06-14T01:00:49;19.80;94.40
7399;DHT22;3740;50.700;7.184;2023-06-14T01:03:16;19.80;94.70
7399;DHT22;3740;50.700;7.184;2023-06-14T01:05:47;19.80;93.80
7399;DHT22;3740;50.700;7.184;2023-06-14T01:08:26;19.80;94.60
7399;DHT22;3740;50.700;7.184;2023-06-14T01:11:01;19.80;94.30
7399;DHT22;3740;50.700;7.184;2023-06-14T01:13:39;19.90;94.80
7399;DHT22;3740;50.700;7.184;2023-06-14T01:16:06;19.80;95.40
7399;DHT22;3740;50.700;7.184;2023-06-14T01:18:33;19.70;95.50
7399;DHT22;3740;50.700;7.184;2023-06-14T01:20:59;19.70;96.20
7399;DHT22;3740;50.700;7.184;2023-06-14T01:23:25;19.70;96.00
7399;DHT22;3740;50.700;7.184;2023-06-14T01:25:57;19.60;95.40
7399;DHT22;3740;50.700;7.184;2023-06-14T01:28:23;19.60;94.20
7399;DHT22;3740;50.700;7.184;2023-06-14T01:30:52;19.60;95.60
7399;DHT22;3740;50.700;7.184;2023-06-14T01:33:24;19.70;96.90
7399;DHT22;3740;50.700;7.184;2023-06-14T01:35:52;19.60;94.90
7399;DHT22;3740;50.700;7.184;2023-06-14T01:38:20;19.60;96.10
7399;DHT22;3740;50.700;7.184;2023-06-14T01:40:48;19.70;96.10
7399;DHT22;3740;50.700;7.184;2023-06-14T01:43:15;19.60;96.80
7399;DHT22;3740;50.700;7.184;2023-06-14T01:45:42;19.60;97.20
7399;DHT22;3740;50.700;7.184;2023-06-14T01:48:08;19.50;97.90
7399;DHT22;3740;50.700;7.184;2023-06-14T01:50:34;19.50;98.30
7399;DHT22;3740;50.700;7.184;2023-06-14T01:53:00;19.40;98.00
7399;DHT22;3740;50.700;7.184;2023-06-14T01:55:25;19.30;98.70
7399;DHT22;3740;50.700;7.184;2023-06-14T01:57:54;19.30;99.10
7399;DHT22;3740;50.700;7.184;2023-06-14T02:00:20;19.20;98.80
7399;DHT22;3740;50.700;7.184;2023-06-14T02:02:46;19.20;98.60
7399;DHT22;3740;50.700;7.184;2023-06-14T02:05:12;19.20;98.10
7399;DHT22;3740;50.700;7.184;2023-06-14T02:07:37;19.10;98.70
7399;DHT22;3740;50.700;7.184;2023-06-14T02:10:04;19.10;98.40
7399;DHT22;3740;50.700;7.184;2023-06-14T02:12:30;19.10;98.80
7399;DHT22;3740;50.700;7.184;2023-06-14T02:14:56;19.00;99.60
7399;DHT22;3740;50.700;7.184;2023-06-14T02:17:22;18.90;99.70
7399;DHT22;3740;50.700;7.184;2023-06-14T02:19:48;18.90;99.20
7399;DHT22;3740;50.700;7.184;2023-06-14T02:22:14;18.80;99.80
7399;DHT22;3740;50.700;7.184;2023-06-14T02:24:41;18.80;99.90
7399;DHT22;3740;50.700;7.184;2023-06-14T02:27:06;18.70;99.90
7399;DHT22;3740;50.700;7.184;2023-06-14T02:29:32;18.60;99.90
7399;DHT22;3740;50.700;7.184;2023-06-14T02:31:57;18.60;99.90
7399;DHT22;3740;50.700;7.184;2023-06-14T02:34:23;18.50;99.90
7399;DHT22;3740;50.700;7.184;2023-06-14T02:36:48;18.50;99.90
7399;DHT22;3740;50.700;7.184;2023-06-14T02:39:15;18.40;99.90
7399;DHT22;3740;50.700;7.184;2023-06-14T02:41:40;18.40;99.90
7399;DHT22;3740;50.700;7.184;2023-06-14T02:44:06;18.30;99.90
7399;DHT22;3740;50.700;7.184;2023-06-14T02:46:32;18.30;99.90
7399;DHT22;3740;50.700;7.184;2023-06-14T02:48:58;18.20;99.90
7399;DHT22;3740;50.700;7.184;2023-06-14T02:51:24;18.20;99.90
7399;DHT22;3740;50.700;7.184;2023-06-14T02:53:49;18.20;99.90
7399;DHT22;3740;50.700;7.184;2023-06-14T02:56:15;18.10;99.90
7399;DHT22;3740;50.700;7.184;2023-06-14T02:58:43;18.10;99.90
7399;DHT22;3740;50.700;7.184;2023-06-14T03:01:09;18.10;99.90
7399;DHT22;3740;50.700;7.184;2023-06-14T03:03:38;18.00;99.90
7399;DHT22;3740;50.700;7.184;2023-06-14T03:06:03;17.30;99.90
7399;DHT22;3740;50.700;7.184;2023-06-14T03:08:31;17.90;99.90
7399;DHT22;3740;50.700;7.184;2023-06-14T03:10:58;17.90;99.90
7399;DHT22;3740;50.700;7.184;2023-06-14T03:13:24;17.90;99.90
7399;DHT22;3740;50.700;7.184;2023-06-14T03:15:49;17.80;99.90
7399;DHT22;3740;50.700;7.184;2023-06-14T03:18:16;17.80;99.90
7399;DHT22;3740;50.700;7.184;2023-06-14T03:20:42;17.80;99.90
7399;DHT22;3740;50.700;7.184;2023-06-14T03:23:08;17.80;99.90
7399;DHT22;3740;50.700;7.184;2023-06-14T03:25:34;17.70;99.90
7399;DHT22;3740;50.700;7.184;2023-06-14T03:28:01;17.70;99.90
7399;DHT22;3740;50.700;7.184;2023-06-14T03:30:27;17.70;99.90
7399;DHT22;3740;50.700;7.184;2023-06-14T03:32:53;17.60;99.90
7399;DHT22;3740;50.700;7.184;2023-06-14T03:35:21;17.60;99.90
7399;DHT22;3740;50.700;7.184;2023-06-14T03:37:47;17.60;99.90
7399;DHT22;3740;50.700;7.184;2023-06-14T03:40:14;17.60;99.90
7399;DHT22;3740;50.700;7.184;2023-06-14T03:42:40;17.60;99.90
7399;DHT22;3740;50.700;7.184;2023-06-14T03:45:06;17.50;99.90
7399;DHT22;3740;50.700;7.184;2023-06-14T03:47:32;17.50;99.90
7399;DHT22;3740;50.700;7.184;2023-06-14T03:49:58;17.50;99.90
7399;DHT22;3740;50.700;7.184;2023-06-14T03:52:24;17.40;99.90
7399;DHT22;3740;50.700;7.184;2023-06-14T03:54:50;17.40;99.90
7399;DHT22;3740;50.700;7.184;2023-06-14T03:57:17;17.40;99.90
7399;DHT22;3740;50.700;7.184;2023-06-14T03:59:42;17.40;99.90
7399;DHT22;3740;50.700;7.184;2023-06-14T04:02:08;17.40;99.90
7399;DHT22;3740;50.700;7.184;2023-06-14T04:04:35;17.40;99.90
7399;DHT22;3740;50.700;7.184;2023-06-14T04:07:01;17.40;99.90
7399;DHT22;3740;50.700;7.184;2023-06-14T04:09:29;17.40;99.90
7399;DHT22;3740;50.700;7.184;2023-06-14T04:11:54;17.40;99.90
7399;DHT22;3740;50.700;7.184;2023-06-14T04:14:20;17.30;99.90
7399;DHT22;3740;50.700;7.184;2023-06-14T04:16:47;17.40;99.90
7399;DHT22;3740;50.700;7.184;2023-06-14T04:19:12;17.40;99.90
7399;DHT22;3740;50.700;7.184;2023-06-14T04:21:38;17.30;99.90
7399;DHT22;3740;50.700;7.184;2023-06-14T04:24:04;17.30;99.90
7399;DHT22;3740;50.700;7.184;2023-06-14T04:26:30;17.30;99.90
7399;DHT22;3740;50.700;7.184;2023-06-14T04:28:59;17.30;99.90
7399;DHT22;3740;50.700;7.184;2023-06-14T04:31:30;17.30;99.90
7399;DHT22;3740;50.700;7.184;2023-06-14T04:33:59;17.30;99.90
7399;DHT22;3740;50.700;7.184;2023-06-14T04:36:24;17.30;99.90
7399;DHT22;3740;50.700;7.184;2023-06-14T04:38:52;17.30;99.90
7399;DHT22;3740;50.700;7.184;2023-06-14T04:41:20;17.30;99.90
7399;DHT22;3740;50.700;7.184;2023-06-14T04:43:48;17.30;99.90
7399;DHT22;3740;50.700;7.184;2023-06-14T04:46:14;17.30;99.90
7399;DHT22;3740;50.700;7.184;2023-06-14T04:48:40;17.30;99.90
7399;DHT22;3740;50.700;7.184;2023-06-14T04:51:08;17.30;99.90
7399;DHT22;3740;50.700;7.184;2023-06-14T04:53:34;17.30;99.90
7399;DHT22;3740;50.700;7.184;2023-06-14T04:56:00;17.30;99.90
7399;DHT22;3740;50.700;7.184;2023-06-14T04:58:26;17.30;99.90
7399;DHT22;3740;50.700;7.184;2023-06-14T05:00:53;17.30;99.90
7399;DHT22;3740;50.700;7.184;2023-06-14T05:03:19;17.30;99.90
7399;DHT22;3740;50.700;7.184;2023-06-14T05:05:46;17.40;99.90
7399;DHT22;3740;50.700;7.184;2023-06-14T05:08:12;17.40;99.90
7399;DHT22;3740;50.700;7.184;2023-06-14T05:10:37;17.40;99.90
7399;DHT22;3740;50.700;7.184;2023-06-14T05:13:03;17.40;99.90
7399;DHT22;3740;50.700;7.184;2023-06-14T05:15:29;17.50;99.90
7399;DHT22;3740;50.700;7.184;2023-06-14T05:17:55;17.50;99.90
7399;DHT22;3740;50.700;7.184;2023-06-14T05:20:24;17.60;99.90
7399;DHT22;3740;50.700;7.184;2023-06-14T05:22:51;17.60;99.90
7399;DHT22;3740;50.700;7.184;2023-06-14T05:25:21;17.70;99.90
7399;DHT22;3740;50.700;7.184;2023-06-14T05:27:47;17.70;99.90
7399;DHT22;3740;50.700;7.184;2023-06-14T05:30:14;17.80;99.90
7399;DHT22;3740;50.700;7.184;2023-06-14T05:32:40;17.80;99.90
7399;DHT22;3740;50.700;7.184;2023-06-14T05:35:06;17.80;99.90
7399;DHT22;3740;50.700;7.184;2023-06-14T05:37:32;17.90;99.90
7399;DHT22;3740;50.700;7.184;2023-06-14T05:39:57;17.90;99.90
7399;DHT22;3740;50.700;7.184;2023-06-14T05:42:23;17.90;99.90
7399;DHT22;3740;50.700;7.184;2023-06-14T05:44:48;18.00;99.90
7399;DHT22;3740;50.700;7.184;2023-06-14T05:47:14;18.00;99.90
7399;DHT22;3740;50.700;7.184;2023-06-14T05:49:40;18.10;99.90
7399;DHT22;3740;50.700;7.184;2023-06-14T05:52:06;18.10;99.90
7399;DHT22;3740;50.700;7.184;2023-06-14T05:54:31;18.10;99.90
7399;DHT22;3740;50.700;7.184;2023-06-14T05:56:57;18.10;99.90
7399;DHT22;3740;50.700;7.184;2023-06-14T05:59:27;18.20;99.90
7399;DHT22;3740;50.700;7.184;2023-06-14T06:01:53;18.30;99.90
7399;DHT22;3740;50.700;7.184;2023-06-14T06:04:18;18.30;99.90
7399;DHT22;3740;50.700;7.184;2023-06-14T06:06:45;18.30;99.90
7399;DHT22;3740;50.700;7.184;2023-06-14T06:09:10;18.40;99.90
7399;DHT22;3740;50.700;7.184;2023-06-14T06:11:36;18.50;99.90
7399;DHT22;3740;50.700;7.184;2023-06-14T06:14:01;18.50;99.90
7399;DHT22;3740;50.700;7.184;2023-06-14T06:16:27;18.50;99.90
7399;DHT22;3740;50.700;7.184;2023-06-14T06:18:52;18.60;99.90
7399;DHT22;3740;50.700;7.184;2023-06-14T06:21:18;18.60;99.90
7399;DHT22;3740;50.700;7.184;2023-06-14T06:23:43;18.70;99.90
7399;DHT22;3740;50.700;7.184;2023-06-14T06:26:09;18.80;99.90
7399;DHT22;3740;50.700;7.184;2023-06-14T06:28:34;18.80;99.90
7399;DHT22;3740;50.700;7.184;2023-06-14T06:31:00;18.90;99.90
7399;DHT22;3740;50.700;7.184;2023-06-14T06:33:26;18.90;99.90
7399;DHT22;3740;50.700;7.184;2023-06-14T06:35:52;18.90;99.90
7399;DHT22;3740;50.700;7.184;2023-06-14T06:38:17;18.90;99.90
7399;DHT22;3740;50.700;7.184;2023-06-14T06:40:44;19.00;99.90
7399;DHT22;3740;50.700;7.184;2023-06-14T06:43:10;19.10;99.90
7399;DHT22;3740;50.700;7.184;2023-06-14T06:45:39;19.10;99.90
7399;DHT22;3740;50.700;7.184;2023-06-14T06:48:05;19.20;99.90
7399;DHT22;3740;50.700;7.184;2023-06-14T06:50:30;19.20;99.50
7399;DHT22;3740;50.700;7.184;2023-06-14T06:52:56;19.30;99.70
7399;DHT22;3740;50.700;7.184;2023-06-14T06:55:21;19.40;99.90
7399;DHT22;3740;50.700;7.184;2023-06-14T06:57:47;19.40;99.90
7399;DHT22;3740;50.700;7.184;2023-06-14T07:00:13;19.40;99.90
7399;DHT22;3740;50.700;7.184;2023-06-14T07:02:39;19.40;99.90
7399;DHT22;3740;50.700;7.184;2023-06-14T07:05:04;19.50;99.90
7399;DHT22;3740;50.700;7.184;2023-06-14T07:07:31;19.50;99.90
7399;DHT22;3740;50.700;7.184;2023-06-14T07:09:56;19.50;99.90
7399;DHT22;3740;50.700;7.184;2023-06-14T07:12:23;19.60;99.90
7399;DHT22;3740;50.700;7.184;2023-06-14T07:14:48;19.60;99.90
7399;DHT22;3740;50.700;7.184;2023-06-14T07:17:14;19.60;99.90
7399;DHT22;3740;50.700;7.184;2023-06-14T07:19:40;19.60;99.90
7399;DHT22;3740;50.700;7.184;2023-06-14T07:22:05;19.70;99.90
7399;DHT22;3740;50.700;7.184;2023-06-14T07:24:31;19.60;99.30
7399;DHT22;3740;50.700;7.184;2023-06-14T07:26:56;19.70;98.80
7399;DHT22;3740;50.700;7.184;2023-06-14T07:29:22;19.70;97.60
7399;DHT22;3740;50.700;7.184;2023-06-14T07:31:47;19.80;96.30
7399;DHT22;3740;50.700;7.184;2023-06-14T07:34:13;19.80;97.00
7399;DHT22;3740;50.700;7.184;2023-06-14T07:36:39;19.80;97.10
7399;DHT22;3740;50.700;7.184;2023-06-14T07:39:04;19.80;98.10
7399;DHT22;3740;50.700;7.184;2023-06-14T07:41:32;19.90;98.30
7399;DHT22;3740;50.700;7.184;2023-06-14T07:43:58;19.90;96.60
7399;DHT22;3740;50.700;7.184;2023-06-14T07:46:23;20.00;96.60
7399;DHT22;3740;50.700;7.184;2023-06-14T07:48:49;20.00;96.40
7399;DHT22;3740;50.700;7.184;2023-06-14T07:51:15;20.10;96.00
7399;DHT22;3740;50.700;7.184;2023-06-14T07:53:40;20.10;96.60
7399;DHT22;3740;50.700;7.184;2023-06-14T07:56:07;20.10;97.50
7399;DHT22;3740;50.700;7.184;2023-06-14T07:58:32;20.20;97.10
7399;DHT22;3740;50.700;7.184;2023-06-14T08:00:58;20.20;97.20
7399;DHT22;3740;50.700;7.184;2023-06-14T08:03:23;20.20;95.80
7399;DHT22;3740;50.700;7.184;2023-06-14T08:05:49;20.20;96.60
7399;DHT22;3740;50.700;7.184;2023-06-14T08:08:15;20.30;93.40
7399;DHT22;3740;50.700;7.184;2023-06-14T08:10:42;20.30;95.00
7399;DHT22;3740;50.700;7.184;2023-06-14T08:13:07;20.30;94.70
7399;DHT22;3740;50.700;7.184;2023-06-14T08:15:34;20.40;94.60
7399;DHT22;3740;50.700;7.184;2023-06-14T08:18:00;20.40;94.30
7399;DHT22;3740;50.700;7.184;2023-06-14T08:20:26;20.40;94.90
7399;DHT22;3740;50.700;7.184;2023-06-14T08:22:52;20.40;93.20
7399;DHT22;3740;50.700;7.184;2023-06-14T08:25:20;20.40;93.50
7399;DHT22;3740;50.700;7.184;2023-06-14T08:27:46;20.50;93.10
7399;DHT22;3740;50.700;7.184;2023-06-14T08:30:12;20.50;93.90
7399;DHT22;3740;50.700;7.184;2023-06-14T08:32:38;20.50;92.50
7399;DHT22;3740;50.700;7.184;2023-06-14T08:35:04;20.60;93.30
7399;DHT22;3740;50.700;7.184;2023-06-14T08:37:31;20.60;88.20
7399;DHT22;3740;50.700;7.184;2023-06-14T08:39:58;20.70;91.70
7399;DHT22;3740;50.700;7.184;2023-06-14T08:42:24;20.70;93.50
7399;DHT22;3740;50.700;7.184;2023-06-14T08:44:49;20.70;91.50
7399;DHT22;3740;50.700;7.184;2023-06-14T08:47:15;20.70;91.90
7399;DHT22;3740;50.700;7.184;2023-06-14T08:49:46;20.80;90.90
7399;DHT22;3740;50.700;7.184;2023-06-14T08:52:13;20.90;88.20
7399;DHT22;3740;50.700;7.184;2023-06-14T08:54:44;20.90;84.70
7399;DHT22;3740;50.700;7.184;2023-06-14T08:57:11;21.00;86.30
7399;DHT22;3740;50.700;7.184;2023-06-14T08:59:46;21.00;83.90
7399;DHT22;3740;50.700;7.184;2023-06-14T09:02:14;21.10;85.60
7399;DHT22;3740;50.700;7.184;2023-06-14T09:04:43;21.20;82.10
7399;DHT22;3740;50.700;7.184;2023-06-14T09:07:10;21.30;86.50
7399;DHT22;3740;50.700;7.184;2023-06-14T09:09:39;21.30;80.10
7399;DHT22;3740;50.700;7.184;2023-06-14T09:12:15;21.30;80.80
7399;DHT22;3740;50.700;7.184;2023-06-14T09:14:41;21.30;85.70
7399;DHT22;3740;50.700;7.184;2023-06-14T09:17:07;21.40;75.70
7399;DHT22;3740;50.700;7.184;2023-06-14T09:19:34;21.50;81.30
7399;DHT22;3740;50.700;7.184;2023-06-14T09:22:02;21.50;76.60
7399;DHT22;3740;50.700;7.184;2023-06-14T09:24:28;21.50;78.20
7399;DHT22;3740;50.700;7.184;2023-06-14T09:26:53;21.60;76.00
7399;DHT22;3740;50.700;7.184;2023-06-14T09:29:19;21.60;78.40
7399;DHT22;3740;50.700;7.184;2023-06-14T09:31:48;21.70;75.80
7399;DHT22;3740;50.700;7.184;2023-06-14T09:34:13;21.80;80.20
7399;DHT22;3740;50.700;7.184;2023-06-14T09:36:42;21.80;78.90
7399;DHT22;3740;50.700;7.184;2023-06-14T09:39:08;21.90;79.80
7399;DHT22;3740;50.700;7.184;2023-06-14T09:41:40;22.00;77.10
7399;DHT22;3740;50.700;7.184;2023-06-14T09:44:08;22.10;74.80
7399;DHT22;3740;50.700;7.184;2023-06-14T09:46:34;22.10;76.20
7399;DHT22;3740;50.700;7.184;2023-06-14T09:49:01;22.00;76.50
7399;DHT22;3740;50.700;7.184;2023-06-14T09:51:27;22.00;79.00
7399;DHT22;3740;50.700;7.184;2023-06-14T09:53:59;22.10;78.60
7399;DHT22;3740;50.700;7.184;2023-06-14T09:56:30;22.10;77.10
7399;DHT22;3740;50.700;7.184;2023-06-14T09:58:57;22.30;78.60
7399;DHT22;3740;50.700;7.184;2023-06-14T10:01:30;22.40;74.30
7399;DHT22;3740;50.700;7.184;2023-06-14T10:04:02;22.40;78.60
7399;DHT22;3740;50.700;7.184;2023-06-14T10:06:29;22.50;74.40
7399;DHT22;3740;50.700;7.184;2023-06-14T10:09:00;22.60;76.40
7399;DHT22;3740;50.700;7.184;2023-06-14T10:11:26;22.70;74.40
7399;DHT22;3740;50.700;7.184;2023-06-14T10:13:57;22.70;73.20
7399;DHT22;3740;50.700;7.184;2023-06-14T10:16:34;22.80;77.50
7399;DHT22;3740;50.700;7.184;2023-06-14T10:24:16;22.90;73.60
7399;DHT22;3740;50.700;7.184;2023-06-14T10:26:54;23.00;73.60
7399;DHT22;3740;50.700;7.184;2023-06-14T10:29:20;23.00;79.40
7399;DHT22;3740;50.700;7.184;2023-06-14T10:31:47;23.10;77.50
7399;DHT22;3740;50.700;7.184;2023-06-14T10:34:28;23.10;76.50
7399;DHT22;3740;50.700;7.184;2023-06-14T10:37:02;23.20;74.00
7399;DHT22;3740;50.700;7.184;2023-06-14T10:39:28;23.20;73.60
7399;DHT22;3740;50.700;7.184;2023-06-14T10:41:56;23.30;72.80
7399;DHT22;3740;50.700;7.184;2023-06-14T10:46:55;23.50;73.20
7399;DHT22;3740;50.700;7.184;2023-06-14T10:49:44;23.70;71.20
7399;DHT22;3740;50.700;7.184;2023-06-14T10:52:15;23.80;72.30
7399;DHT22;3740;50.700;7.184;2023-06-14T10:57:25;24.40;69.40
7399;DHT22;3740;50.700;7.184;2023-06-14T10:59:50;24.80;68.70
7399;DHT22;3740;50.700;7.184;2023-06-14T11:04:52;25.90;65.20
7399;DHT22;3740;50.700;7.184;2023-06-14T11:07:42;27.00;67.10
7399;DHT22;3740;50.700;7.184;2023-06-14T11:12:49;32.30;52.80
7399;DHT22;3740;50.700;7.184;2023-06-14T11:15:16;34.50;51.70
7399;DHT22;3740;50.700;7.184;2023-06-14T11:17:53;34.80;47.20
7399;DHT22;3740;50.700;7.184;2023-06-14T11:20:18;35.80;45.20
7399;DHT22;3740;50.700;7.184;2023-06-14T11:22:45;36.80;42.00
7399;DHT22;3740;50.700;7.184;2023-06-14T11:25:14;37.70;42.20
7399;DHT22;3740;50.700;7.184;2023-06-14T11:27:42;38.70;41.00
7399;DHT22;3740;50.700;7.184;2023-06-14T11:30:08;39.60;39.10
7399;DHT22;3740;50.700;7.184;2023-06-14T11:32:40;40.10;37.80
7399;DHT22;3740;50.700;7.184;2023-06-14T11:35:06;40.40;37.50
7399;DHT22;3740;50.700;7.184;2023-06-14T11:37:32;40.60;36.20
7399;DHT22;3740;50.700;7.184;2023-06-14T11:40:03;41.20;35.20
7399;DHT22;3740;50.700;7.184;2023-06-14T11:42:33;41.40;34.80
7399;DHT22;3740;50.700;7.184;2023-06-14T11:44:59;41.20;33.50
7399;DHT22;3740;50.700;7.184;2023-06-14T11:47:30;41.30;32.90
7399;DHT22;3740;50.700;7.184;2023-06-14T11:49:58;41.20;33.50
7399;DHT22;3740;50.700;7.184;2023-06-14T11:52:24;41.10;32.90
7399;DHT22;3740;50.700;7.184;2023-06-14T11:54:49;41.70;33.20
7399;DHT22;3740;50.700;7.184;2023-06-14T11:57:17;42.10;32.70
7399;DHT22;3740;50.700;7.184;2023-06-14T11:59:44;42.40;32.50
7399;DHT22;3740;50.700;7.184;2023-06-14T12:02:13;42.40;30.80
7399;DHT22;3740;50.700;7.184;2023-06-14T12:04:41;42.30;32.70
7399;DHT22;3740;50.700;7.184;2023-06-14T12:07:14;42.00;30.60
7399;DHT22;3740;50.700;7.184;2023-06-14T12:09:41;42.30;32.60
7399;DHT22;3740;50.700;7.184;2023-06-14T12:12:09;42.70;31.30
7399;DHT22;3740;50.700;7.184;2023-06-14T12:14:36;43.40;32.20
7399;DHT22;3740;50.700;7.184;2023-06-14T12:17:05;43.60;31.40
7399;DHT22;3740;50.700;7.184;2023-06-14T12:19:32;43.20;31.10
7399;DHT22;3740;50.700;7.184;2023-06-14T12:21:59;43.30;31.50
7399;DHT22;3740;50.700;7.184;2023-06-14T12:24:29;43.50;31.10
7399;DHT22;3740;50.700;7.184;2023-06-14T12:26:57;43.50;31.00
7399;DHT22;3740;50.700;7.184;2023-06-14T12:29:25;43.50;31.10
7399;DHT22;3740;50.700;7.184;2023-06-14T12:31:50;43.10;29.90
7399;DHT22;3740;50.700;7.184;2023-06-14T12:34:16;43.00;30.40
7399;DHT22;3740;50.700;7.184;2023-06-14T12:36:42;41.70;30.10
7399;DHT22;3740;50.700;7.184;2023-06-14T12:39:10;42.30;32.00
7399;DHT22;3740;50.700;7.184;2023-06-14T12:41:36;42.50;31.80
7399;DHT22;3740;50.700;7.184;2023-06-14T12:44:02;42.60;31.40
7399;DHT22;3740;50.700;7.184;2023-06-14T12:46:30;42.10;31.60
7399;DHT22;3740;50.700;7.184;2023-06-14T12:48:56;42.60;31.80
7399;DHT22;3740;50.700;7.184;2023-06-14T12:51:22;42.50;31.30
7399;DHT22;3740;50.700;7.184;2023-06-14T12:53:49;41.90;31.80
7399;DHT22;3740;50.700;7.184;2023-06-14T12:56:14;41.60;32.00
7399;DHT22;3740;50.700;7.184;2023-06-14T12:58:41;40.50;33.40
7399;DHT22;3740;50.700;7.184;2023-06-14T13:01:07;40.00;32.50
7399;DHT22;3740;50.700;7.184;2023-06-14T13:03:32;39.70;32.30
7399;DHT22;3740;50.700;7.184;2023-06-14T13:06:01;39.90;33.30
7399;DHT22;3740;50.700;7.184;2023-06-14T13:08:29;40.20;32.60
7399;DHT22;3740;50.700;7.184;2023-06-14T13:10:54;40.80;32.80
7399;DHT22;3740;50.700;7.184;2023-06-14T13:13:20;39.90;32.70
7399;DHT22;3740;50.700;7.184;2023-06-14T13:15:46;38.80;33.20
7399;DHT22;3740;50.700;7.184;2023-06-14T13:18:12;38.70;33.80
7399;DHT22;3740;50.700;7.184;2023-06-14T13:20:40;38.60;33.70
7399;DHT22;3740;50.700;7.184;2023-06-14T13:23:06;39.00;34.10
7399;DHT22;3740;50.700;7.184;2023-06-14T13:25:36;39.10;33.30
7399;DHT22;3740;50.700;7.184;2023-06-14T13:28:03;39.20;34.40
7399;DHT22;3740;50.700;7.184;2023-06-14T13:30:29;38.40;34.40
7399;DHT22;3740;50.700;7.184;2023-06-14T13:32:54;37.40;34.00
7399;DHT22;3740;50.700;7.184;2023-06-14T13:35:21;37.30;34.60
7399;DHT22;3740;50.700;7.184;2023-06-14T13:37:47;37.50;35.60
7399;DHT22;3740;50.700;7.184;2023-06-14T13:40:13;37.70;35.60
7399;DHT22;3740;50.700;7.184;2023-06-14T13:42:38;37.20;36.30
7399;DHT22;3740;50.700;7.184;2023-06-14T13:45:05;36.70;33.70
7399;DHT22;3740;50.700;7.184;2023-06-14T13:47:31;36.50;35.70
7399;DHT22;3740;50.700;7.184;2023-06-14T13:49:57;36.30;35.70
7399;DHT22;3740;50.700;7.184;2023-06-14T13:52:23;36.10;35.60
7399;DHT22;3740;50.700;7.184;2023-06-14T13:54:49;35.70;36.20
7399;DHT22;3740;50.700;7.184;2023-06-14T13:57:18;35.60;36.70
7399;DHT22;3740;50.700;7.184;2023-06-14T13:59:44;35.60;34.80
7399;DHT22;3740;50.700;7.184;2023-06-14T14:02:13;35.80;36.30
7399;DHT22;3740;50.700;7.184;2023-06-14T14:04:40;35.70;36.10
7399;DHT22;3740;50.700;7.184;2023-06-14T14:07:06;34.90;35.80
7399;DHT22;3740;50.700;7.184;2023-06-14T14:09:33;34.10;37.50
7399;DHT22;3740;50.700;7.184;2023-06-14T14:11:59;33.60;37.70
7399;DHT22;3740;50.700;7.184;2023-06-14T14:14:26;33.60;37.70
7399;DHT22;3740;50.700;7.184;2023-06-14T14:16:52;33.40;36.90
7399;DHT22;3740;50.700;7.184;2023-06-14T14:19:20;33.30;36.90
7399;DHT22;3740;50.700;7.184;2023-06-14T14:21:46;33.20;38.10
7399;DHT22;3740;50.700;7.184;2023-06-14T14:24:12;33.30;38.50
7399;DHT22;3740;50.700;7.184;2023-06-14T14:26:37;33.20;38.70
7399;DHT22;3740;50.700;7.184;2023-06-14T14:29:03;33.20;37.90
7399;DHT22;3740;50.700;7.184;2023-06-14T14:31:29;33.00;37.70
7399;DHT22;3740;50.700;7.184;2023-06-14T14:33:54;33.10;38.40
7399;DHT22;3740;50.700;7.184;2023-06-14T14:36:20;32.70;39.50
7399;DHT22;3740;50.700;7.184;2023-06-14T14:38:45;32.10;39.40
7399;DHT22;3740;50.700;7.184;2023-06-14T14:41:12;31.40;40.70
7399;DHT22;3740;50.700;7.184;2023-06-14T14:43:38;31.00;40.50
7399;DHT22;3740;50.700;7.184;2023-06-14T14:46:03;30.90;41.10
7399;DHT22;3740;50.700;7.184;2023-06-14T14:48:29;30.80;40.60
7399;DHT22;3740;50.700;7.184;2023-06-14T14:50:54;31.00;40.70
7399;DHT22;3740;50.700;7.184;2023-06-14T14:53:20;31.00;41.40
7399;DHT22;3740;50.700;7.184;2023-06-14T14:55:46;30.70;41.70
7399;DHT22;3740;50.700;7.184;2023-06-14T14:58:12;30.80;41.30
7399;DHT22;3740;50.700;7.184;2023-06-14T15:00:38;30.80;42.10
7399;DHT22;3740;50.700;7.184;2023-06-14T15:03:04;30.60;42.00
7399;DHT22;3740;50.700;7.184;2023-06-14T15:05:29;30.40;42.40
7399;DHT22;3740;50.700;7.184;2023-06-14T15:07:55;30.40;41.30
7399;DHT22;3740;50.700;7.184;2023-06-14T15:10:20;30.10;42.50
7399;DHT22;3740;50.700;7.184;2023-06-14T15:12:46;29.70;43.00
7399;DHT22;3740;50.700;7.184;2023-06-14T15:15:12;29.30;43.40
7399;DHT22;3740;50.700;7.184;2023-06-14T15:17:37;29.20;44.50
7399;DHT22;3740;50.700;7.184;2023-06-14T15:20:03;28.60;42.30
7399;DHT22;3740;50.700;7.184;2023-06-14T15:22:29;28.30;45.10
7399;DHT22;3740;50.700;7.184;2023-06-14T15:24:55;28.20;45.30
7399;DHT22;3740;50.700;7.184;2023-06-14T15:27:20;28.10;43.10
7399;DHT22;3740;50.700;7.184;2023-06-14T15:29:46;27.90;42.50
7399;DHT22;3740;50.700;7.184;2023-06-14T15:32:12;27.90;44.30
7399;DHT22;3740;50.700;7.184;2023-06-14T15:34:37;27.90;46.50
7399;DHT22;3740;50.700;7.184;2023-06-14T15:37:05;27.90;45.70
7399;DHT22;3740;50.700;7.184;2023-06-14T15:39:31;27.90;45.70
7399;DHT22;3740;50.700;7.184;2023-06-14T15:41:58;27.90;47.10
7399;DHT22;3740;50.700;7.184;2023-06-14T15:44:24;27.90;46.30
7399;DHT22;3740;50.700;7.184;2023-06-14T15:46:49;27.60;45.20
7399;DHT22;3740;50.700;7.184;2023-06-14T15:49:15;27.50;45.80
7399;DHT22;3740;50.700;7.184;2023-06-14T15:51:40;27.50;46.50
7399;DHT22;3740;50.700;7.184;2023-06-14T15:54:06;27.50;44.80
7399;DHT22;3740;50.700;7.184;2023-06-14T15:56:32;27.50;46.60
7399;DHT22;3740;50.700;7.184;2023-06-14T15:58:58;27.50;45.80
7399;DHT22;3740;50.700;7.184;2023-06-14T16:01:24;27.60;47.10
7399;DHT22;3740;50.700;7.184;2023-06-14T16:03:50;27.50;46.20
7399;DHT22;3740;50.700;7.184;2023-06-14T16:06:16;27.60;44.40
7399;DHT22;3740;50.700;7.184;2023-06-14T16:08:41;27.50;45.30
7399;DHT22;3740;50.700;7.184;2023-06-14T16:11:07;27.50;45.30
7399;DHT22;3740;50.700;7.184;2023-06-14T16:13:33;27.50;45.40